San Pedro, Belize

3:36 PM CST on August 23, 2016 (GMT -0600)
Mosquito Coast | | Change Station

Elev 40 ft 17.89 °N, 87.98 °W | Updated 6 minutes ago

Scattered Clouds
Scattered Clouds
88.1 °F
Feels Like 105 °F
N
5.0
Wind Variable Wind from East
Gusts 12.0 mph

Today
High -- | Low -- °F
--% Chance of Precip.
Yesterday
High -- | Low -- °F
Precip. -- in
Pressure 30.00 in
Visibility 6.2 miles
Clouds Scattered Clouds 2200 ft
Heat Index 105 °F
Dew Point 80 °F
Humidity 77%
Rainfall 0.00 in
Snow Depth Not available.
5:36 AM 6:12 PM
Waning Gibbous, 64% visible
METAR MZBZ 232110Z 2400/2424 08008KT 9999 SCT022 BECMG 2408/2409 30005KT BECMG 2415/2416 07007KT
Pressure 30.00 in
Visibility 6.2 miles
Clouds Scattered Clouds 2200 ft
Heat Index 105 °F
Dew Point 80 °F
Humidity 77%
Rainfall 0.00 in
Snow Depth Not available.
5:36 AM 6:12 PM
Waning Gibbous, 64% visible
METAR MZBZ 232110Z 2400/2424 08008KT 9999 SCT022 BECMG 2408/2409 30005KT BECMG 2415/2416 07007KT

10-Day Weather Forecast

No radar image for this location.
×

Almanac

Astronomy

Aug. 23, 2016 Rise Set
Actual Time
Civil Twilight
Nautical Twilight
Astronomical Twilight
Moon
Length of Visible Light
Length of Day
Tomorrow will be .
, % of the Moon is Illuminated

Today's Extremes

Country Highs Country Lows

Community

WunderPhotos

Upload Photos

1,934,470 photos uploaded!

WunderBlog® & News

Nearby

Air Quality

  Air Quality AQ Index Pollutant
Not available.

Snow Depth

Station Depth Elevation

Earthquake Activity

City Distance Mag. Time & Date
Minimum magnitude displayed is 2.5.

Coastal Water Temperatures

Place Temperature

Stations

Nearby Weather Stations

Station Location Temp. Windchill Dew Point Humidity Wind Precip. Elev Updated Type